sensor_id;sensor_type;location;lat;lon;timestamp;P1;durP1;ratioP1;P2;durP2;ratioP2
30472;SDS011;17263;48.160;11.452;2024-03-17T00:02:17;3.63;;;3.33;;
30472;SDS011;17263;48.160;11.452;2024-03-17T00:04:47;3.27;;;2.97;;
30472;SDS011;17263;48.160;11.452;2024-03-17T00:07:14;3.77;;;3.10;;
30472;SDS011;17263;48.160;11.452;2024-03-17T00:09:41;3.47;;;2.70;;
30472;SDS011;17263;48.160;11.452;2024-03-17T00:12:07;3.80;;;3.37;;
30472;SDS011;17263;48.160;11.452;2024-03-17T00:14:34;4.43;;;3.50;;
30472;SDS011;17263;48.160;11.452;2024-03-17T00:17:02;3.70;;;3.40;;
30472;SDS011;17263;48.160;11.452;2024-03-17T00:19:29;3.70;;;3.40;;
30472;SDS011;17263;48.160;11.452;2024-03-17T00:21:55;3.83;;;3.43;;
30472;SDS011;17263;48.160;11.452;2024-03-17T00:24:22;3.27;;;2.97;;
30472;SDS011;17263;48.160;11.452;2024-03-17T00:26:48;4.30;;;3.77;;
30472;SDS011;17263;48.160;11.452;2024-03-17T00:29:15;4.20;;;3.53;;
30472;SDS011;17263;48.160;11.452;2024-03-17T00:31:41;4.80;;;3.53;;
30472;SDS011;17263;48.160;11.452;2024-03-17T00:34:08;3.43;;;3.13;;
30472;SDS011;17263;48.160;11.452;2024-03-17T00:36:36;4.87;;;3.40;;
30472;SDS011;17263;48.160;11.452;2024-03-17T00:39:02;4.70;;;3.87;;
30472;SDS011;17263;48.160;11.452;2024-03-17T00:41:29;5.53;;;3.90;;
30472;SDS011;17263;48.160;11.452;2024-03-17T00:43:55;5.70;;;4.07;;
30472;SDS011;17263;48.160;11.452;2024-03-17T00:46:22;5.17;;;4.27;;
30472;SDS011;17263;48.160;11.452;2024-03-17T00:48:49;5.10;;;4.60;;
30472;SDS011;17263;48.160;11.452;2024-03-17T00:51:16;5.30;;;4.43;;
30472;SDS011;17263;48.160;11.452;2024-03-17T00:53:43;4.40;;;4.00;;
30472;SDS011;17263;48.160;11.452;2024-03-17T00:56:09;6.93;;;4.50;;
30472;SDS011;17263;48.160;11.452;2024-03-17T00:58:36;5.27;;;4.33;;
30472;SDS011;17263;48.160;11.452;2024-03-17T01:01:04;4.47;;;4.03;;
30472;SDS011;17263;48.160;11.452;2024-03-17T01:03:30;4.33;;;3.83;;
30472;SDS011;17263;48.160;11.452;2024-03-17T01:05:57;4.50;;;4.03;;
30472;SDS011;17263;48.160;11.452;2024-03-17T01:08:23;7.13;;;4.27;;
30472;SDS011;17263;48.160;11.452;2024-03-17T01:10:50;4.20;;;3.80;;
30472;SDS011;17263;48.160;11.452;2024-03-17T01:13:17;4.43;;;3.87;;
30472;SDS011;17263;48.160;11.452;2024-03-17T01:15:44;4.57;;;3.80;;
30472;SDS011;17263;48.160;11.452;2024-03-17T01:18:10;5.30;;;4.10;;
30472;SDS011;17263;48.160;11.452;2024-03-17T01:20:37;4.90;;;3.93;;
30472;SDS011;17263;48.160;11.452;2024-03-17T01:23:04;4.27;;;3.87;;
30472;SDS011;17263;48.160;11.452;2024-03-17T01:25:32;4.40;;;4.00;;
30472;SDS011;17263;48.160;11.452;2024-03-17T01:28:03;5.00;;;4.50;;
30472;SDS011;17263;48.160;11.452;2024-03-17T01:30:30;4.30;;;3.70;;
30472;SDS011;17263;48.160;11.452;2024-03-17T01:32:58;5.20;;;3.73;;
30472;SDS011;17263;48.160;11.452;2024-03-17T01:35:27;3.90;;;3.50;;
30472;SDS011;17263;48.160;11.452;2024-03-17T01:37:54;4.10;;;3.70;;
30472;SDS011;17263;48.160;11.452;2024-03-17T01:40:20;5.13;;;4.40;;
30472;SDS011;17263;48.160;11.452;2024-03-17T01:42:47;4.97;;;3.83;;
30472;SDS011;17263;48.160;11.452;2024-03-17T01:47:43;3.87;;;3.43;;
30472;SDS011;17263;48.160;11.452;2024-03-17T01:50:16;5.20;;;4.03;;
30472;SDS011;17263;48.160;11.452;2024-03-17T01:52:55;4.43;;;4.03;;
30472;SDS011;17263;48.160;11.452;2024-03-17T01:56:11;4.67;;;3.73;;
30472;SDS011;17263;48.160;11.452;2024-03-17T01:58:47;4.30;;;3.90;;
30472;SDS011;17263;48.160;11.452;2024-03-17T02:02:06;19.07;;;11.33;;
30472;SDS011;17263;48.160;11.452;2024-03-17T02:05:03;8.00;;;5.93;;
30472;SDS011;17263;48.160;11.452;2024-03-17T02:08:01;5.83;;;5.23;;
30472;SDS011;17263;48.160;11.452;2024-03-17T02:11:01;7.23;;;4.27;;
30472;SDS011;17263;48.160;11.452;2024-03-17T02:13:55;4.70;;;3.60;;
30472;SDS011;17263;48.160;11.452;2024-03-17T02:16:29;4.43;;;4.00;;
30472;SDS011;17263;48.160;11.452;2024-03-17T02:19:26;4.00;;;3.60;;
30472;SDS011;17263;48.160;11.452;2024-03-17T02:22:14;5.53;;;5.03;;
30472;SDS011;17263;48.160;11.452;2024-03-17T02:24:42;5.77;;;4.77;;
30472;SDS011;17263;48.160;11.452;2024-03-17T02:27:09;5.23;;;4.73;;
30472;SDS011;17263;48.160;11.452;2024-03-17T02:29:36;5.23;;;4.73;;
30472;SDS011;17263;48.160;11.452;2024-03-17T02:32:03;5.37;;;4.87;;
30472;SDS011;17263;48.160;11.452;2024-03-17T02:34:35;6.27;;;5.07;;
30472;SDS011;17263;48.160;11.452;2024-03-17T02:37:03;6.80;;;5.23;;
30472;SDS011;17263;48.160;11.452;2024-03-17T02:39:31;5.43;;;4.57;;
30472;SDS011;17263;48.160;11.452;2024-03-17T02:41:58;4.93;;;4.43;;
30472;SDS011;17263;48.160;11.452;2024-03-17T02:44:25;5.03;;;4.30;;
30472;SDS011;17263;48.160;11.452;2024-03-17T02:46:51;5.03;;;4.37;;
30472;SDS011;17263;48.160;11.452;2024-03-17T02:49:18;7.30;;;4.33;;
30472;SDS011;17263;48.160;11.452;2024-03-17T02:51:44;9.10;;;3.90;;
30472;SDS011;17263;48.160;11.452;2024-03-17T02:54:11;4.97;;;4.13;;
30472;SDS011;17263;48.160;11.452;2024-03-17T02:56:37;5.13;;;4.00;;
30472;SDS011;17263;48.160;11.452;2024-03-17T02:59:04;4.43;;;4.03;;
30472;SDS011;17263;48.160;11.452;2024-03-17T03:01:30;4.97;;;4.27;;
30472;SDS011;17263;48.160;11.452;2024-03-17T03:03:57;4.67;;;4.23;;
30472;SDS011;17263;48.160;11.452;2024-03-17T03:06:23;4.23;;;3.73;;
30472;SDS011;17263;48.160;11.452;2024-03-17T03:08:50;4.30;;;3.90;;
30472;SDS011;17263;48.160;11.452;2024-03-17T03:11:17;4.70;;;4.17;;
30472;SDS011;17263;48.160;11.452;2024-03-17T03:13:43;4.60;;;4.17;;
30472;SDS011;17263;48.160;11.452;2024-03-17T03:16:11;4.40;;;4.00;;
30472;SDS011;17263;48.160;11.452;2024-03-17T03:18:40;5.10;;;4.60;;
30472;SDS011;17263;48.160;11.452;2024-03-17T03:21:07;5.63;;;4.60;;
30472;SDS011;17263;48.160;11.452;2024-03-17T03:23:33;5.23;;;4.43;;
30472;SDS011;17263;48.160;11.452;2024-03-17T03:26:01;4.40;;;4.00;;
30472;SDS011;17263;48.160;11.452;2024-03-17T03:28:30;5.07;;;4.50;;
30472;SDS011;17263;48.160;11.452;2024-03-17T03:30:58;4.50;;;4.10;;
30472;SDS011;17263;48.160;11.452;2024-03-17T03:33:24;4.50;;;4.10;;
30472;SDS011;17263;48.160;11.452;2024-03-17T03:35:51;4.30;;;3.90;;
30472;SDS011;17263;48.160;11.452;2024-03-17T03:38:17;5.13;;;4.00;;
30472;SDS011;17263;48.160;11.452;2024-03-17T03:40:47;4.30;;;3.90;;
30472;SDS011;17263;48.160;11.452;2024-03-17T03:43:14;6.20;;;4.30;;
30472;SDS011;17263;48.160;11.452;2024-03-17T03:45:41;4.63;;;4.10;;
30472;SDS011;17263;48.160;11.452;2024-03-17T03:48:08;5.07;;;4.47;;
30472;SDS011;17263;48.160;11.452;2024-03-17T03:50:35;5.27;;;4.50;;
30472;SDS011;17263;48.160;11.452;2024-03-17T03:53:04;5.27;;;4.77;;
30472;SDS011;17263;48.160;11.452;2024-03-17T03:55:31;5.17;;;4.47;;
30472;SDS011;17263;48.160;11.452;2024-03-17T03:57:58;4.27;;;3.87;;
30472;SDS011;17263;48.160;11.452;2024-03-17T04:00:24;4.60;;;4.20;;
30472;SDS011;17263;48.160;11.452;2024-03-17T04:02:55;6.87;;;4.20;;
30472;SDS011;17263;48.160;11.452;2024-03-17T04:05:22;4.80;;;3.97;;
30472;SDS011;17263;48.160;11.452;2024-03-17T04:07:49;4.60;;;4.10;;
30472;SDS011;17263;48.160;11.452;2024-03-17T04:10:15;4.50;;;4.10;;
30472;SDS011;17263;48.160;11.452;2024-03-17T04:12:44;4.87;;;4.47;;
30472;SDS011;17263;48.160;11.452;2024-03-17T04:15:13;4.90;;;4.50;;
30472;SDS011;17263;48.160;11.452;2024-03-17T04:17:40;4.70;;;4.27;;
30472;SDS011;17263;48.160;11.452;2024-03-17T04:20:07;5.17;;;4.67;;
30472;SDS011;17263;48.160;11.452;2024-03-17T04:22:36;5.23;;;4.73;;
30472;SDS011;17263;48.160;11.452;2024-03-17T04:25:03;9.23;;;5.23;;
30472;SDS011;17263;48.160;11.452;2024-03-17T04:27:30;6.30;;;5.00;;
30472;SDS011;17263;48.160;11.452;2024-03-17T04:29:58;5.60;;;4.70;;
30472;SDS011;17263;48.160;11.452;2024-03-17T04:32:25;5.20;;;4.70;;
30472;SDS011;17263;48.160;11.452;2024-03-17T04:34:56;5.10;;;4.60;;
30472;SDS011;17263;48.160;11.452;2024-03-17T04:37:23;5.10;;;4.60;;
30472;SDS011;17263;48.160;11.452;2024-03-17T04:39:50;4.83;;;4.20;;
30472;SDS011;17263;48.160;11.452;2024-03-17T04:42:17;4.83;;;4.37;;
30472;SDS011;17263;48.160;11.452;2024-03-17T04:44:44;6.20;;;5.60;;
30472;SDS011;17263;48.160;11.452;2024-03-17T04:47:12;6.07;;;5.47;;
30472;SDS011;17263;48.160;11.452;2024-03-17T04:49:40;6.27;;;5.50;;
30472;SDS011;17263;48.160;11.452;2024-03-17T04:52:08;5.43;;;4.93;;
30472;SDS011;17263;48.160;11.452;2024-03-17T04:54:36;5.27;;;4.77;;
30472;SDS011;17263;48.160;11.452;2024-03-17T04:57:02;5.90;;;4.67;;
30472;SDS011;17263;48.160;11.452;2024-03-17T04:59:29;5.20;;;4.70;;
30472;SDS011;17263;48.160;11.452;2024-03-17T05:01:59;5.83;;;4.80;;
30472;SDS011;17263;48.160;11.452;2024-03-17T05:04:25;4.80;;;4.33;;
30472;SDS011;17263;48.160;11.452;2024-03-17T05:06:51;4.60;;;4.20;;
30472;SDS011;17263;48.160;11.452;2024-03-17T05:09:20;6.43;;;4.93;;
30472;SDS011;17263;48.160;11.452;2024-03-17T05:11:47;5.87;;;5.27;;
30472;SDS011;17263;48.160;11.452;2024-03-17T05:14:15;5.50;;;5.00;;
30472;SDS011;17263;48.160;11.452;2024-03-17T05:16:41;4.63;;;4.23;;
30472;SDS011;17263;48.160;11.452;2024-03-17T05:19:07;4.93;;;4.43;;
30472;SDS011;17263;48.160;11.452;2024-03-17T05:21:34;5.00;;;4.53;;
30472;SDS011;17263;48.160;11.452;2024-03-17T05:24:01;5.67;;;5.17;;
30472;SDS011;17263;48.160;11.452;2024-03-17T05:26:27;5.17;;;4.67;;
30472;SDS011;17263;48.160;11.452;2024-03-17T05:28:53;5.53;;;5.03;;
30472;SDS011;17263;48.160;11.452;2024-03-17T05:31:19;5.10;;;4.60;;
30472;SDS011;17263;48.160;11.452;2024-03-17T05:33:47;5.60;;;5.10;;
30472;SDS011;17263;48.160;11.452;2024-03-17T05:36:14;9.23;;;6.50;;
30472;SDS011;17263;48.160;11.452;2024-03-17T05:38:40;6.50;;;5.70;;
30472;SDS011;17263;48.160;11.452;2024-03-17T05:41:07;5.50;;;5.00;;
30472;SDS011;17263;48.160;11.452;2024-03-17T05:43:34;7.80;;;6.03;;
30472;SDS011;17263;48.160;11.452;2024-03-17T05:46:02;6.43;;;5.63;;
30472;SDS011;17263;48.160;11.452;2024-03-17T05:48:32;6.63;;;5.87;;
30472;SDS011;17263;48.160;11.452;2024-03-17T05:51:00;6.77;;;5.73;;
30472;SDS011;17263;48.160;11.452;2024-03-17T05:53:28;7.33;;;6.53;;
30472;SDS011;17263;48.160;11.452;2024-03-17T05:55:54;7.13;;;6.43;;
30472;SDS011;17263;48.160;11.452;2024-03-17T05:58:20;7.00;;;5.90;;
30472;SDS011;17263;48.160;11.452;2024-03-17T06:00:46;6.47;;;5.77;;
30472;SDS011;17263;48.160;11.452;2024-03-17T06:03:12;6.20;;;5.60;;
30472;SDS011;17263;48.160;11.452;2024-03-17T06:05:39;7.03;;;6.33;;
30472;SDS011;17263;48.160;11.452;2024-03-17T06:08:08;7.40;;;6.50;;
30472;SDS011;17263;48.160;11.452;2024-03-17T06:10:37;6.33;;;5.70;;
30472;SDS011;17263;48.160;11.452;2024-03-17T06:13:04;6.50;;;5.80;;
30472;SDS011;17263;48.160;11.452;2024-03-17T06:15:30;6.80;;;6.20;;
30472;SDS011;17263;48.160;11.452;2024-03-17T06:17:56;7.20;;;6.50;;
30472;SDS011;17263;48.160;11.452;2024-03-17T06:20:23;6.93;;;6.20;;
30472;SDS011;17263;48.160;11.452;2024-03-17T06:22:52;6.80;;;6.10;;
30472;SDS011;17263;48.160;11.452;2024-03-17T06:25:19;9.07;;;6.77;;
30472;SDS011;17263;48.160;11.452;2024-03-17T06:27:45;9.23;;;6.37;;
30472;SDS011;17263;48.160;11.452;2024-03-17T06:30:12;7.03;;;6.30;;
30472;SDS011;17263;48.160;11.452;2024-03-17T06:32:42;7.67;;;6.97;;
30472;SDS011;17263;48.160;11.452;2024-03-17T06:35:11;9.73;;;7.50;;
30472;SDS011;17263;48.160;11.452;2024-03-17T06:37:37;8.73;;;7.17;;
30472;SDS011;17263;48.160;11.452;2024-03-17T06:40:06;7.17;;;6.37;;
30472;SDS011;17263;48.160;11.452;2024-03-17T06:42:37;7.13;;;6.37;;
30472;SDS011;17263;48.160;11.452;2024-03-17T06:45:04;7.83;;;6.50;;
30472;SDS011;17263;48.160;11.452;2024-03-17T06:47:37;8.97;;;6.23;;
30472;SDS011;17263;48.160;11.452;2024-03-17T06:50:04;6.97;;;6.27;;
30472;SDS011;17263;48.160;11.452;2024-03-17T06:52:30;7.50;;;6.43;;
30472;SDS011;17263;48.160;11.452;2024-03-17T06:54:57;7.70;;;6.77;;
30472;SDS011;17263;48.160;11.452;2024-03-17T06:57:24;7.43;;;6.40;;
30472;SDS011;17263;48.160;11.452;2024-03-17T06:59:51;7.60;;;6.90;;
30472;SDS011;17263;48.160;11.452;2024-03-17T07:02:17;8.23;;;7.10;;
30472;SDS011;17263;48.160;11.452;2024-03-17T07:04:45;9.33;;;6.73;;
30472;SDS011;17263;48.160;11.452;2024-03-17T07:07:12;7.10;;;6.27;;
30472;SDS011;17263;48.160;11.452;2024-03-17T07:09:41;10.87;;;6.20;;
30472;SDS011;17263;48.160;11.452;2024-03-17T07:12:08;5.60;;;5.00;;
30472;SDS011;17263;48.160;11.452;2024-03-17T07:14:35;5.93;;;5.33;;
30472;SDS011;17263;48.160;11.452;2024-03-17T07:17:01;6.17;;;4.70;;
30472;SDS011;17263;48.160;11.452;2024-03-17T07:19:27;6.07;;;5.10;;
30472;SDS011;17263;48.160;11.452;2024-03-17T07:21:54;5.70;;;5.20;;
30472;SDS011;17263;48.160;11.452;2024-03-17T07:24:20;5.13;;;4.63;;
30472;SDS011;17263;48.160;11.452;2024-03-17T07:26:49;5.20;;;4.70;;
30472;SDS011;17263;48.160;11.452;2024-03-17T07:29:16;5.13;;;4.27;;
30472;SDS011;17263;48.160;11.452;2024-03-17T07:31:44;4.73;;;4.33;;
30472;SDS011;17263;48.160;11.452;2024-03-17T07:34:10;4.00;;;3.60;;
30472;SDS011;17263;48.160;11.452;2024-03-17T07:36:36;3.70;;;3.40;;
30472;SDS011;17263;48.160;11.452;2024-03-17T07:39:02;4.57;;;3.23;;
30472;SDS011;17263;48.160;11.452;2024-03-17T07:41:28;4.60;;;3.70;;
30472;SDS011;17263;48.160;11.452;2024-03-17T07:43:54;4.63;;;3.70;;
30472;SDS011;17263;48.160;11.452;2024-03-17T07:46:20;4.70;;;3.13;;
30472;SDS011;17263;48.160;11.452;2024-03-17T07:48:46;3.80;;;3.50;;
30472;SDS011;17263;48.160;11.452;2024-03-17T07:51:13;3.87;;;3.50;;
30472;SDS011;17263;48.160;11.452;2024-03-17T07:53:41;3.77;;;3.40;;
30472;SDS011;17263;48.160;11.452;2024-03-17T07:56:11;4.67;;;3.77;;
30472;SDS011;17263;48.160;11.452;2024-03-17T07:58:40;4.27;;;3.70;;
30472;SDS011;17263;48.160;11.452;2024-03-17T08:01:10;3.60;;;3.30;;
30472;SDS011;17263;48.160;11.452;2024-03-17T08:03:39;3.90;;;3.10;;
30472;SDS011;17263;48.160;11.452;2024-03-17T08:06:07;4.33;;;3.83;;
30472;SDS011;17263;48.160;11.452;2024-03-17T08:08:34;5.53;;;3.80;;
30472;SDS011;17263;48.160;11.452;2024-03-17T08:11:00;4.40;;;3.50;;
30472;SDS011;17263;48.160;11.452;2024-03-17T08:13:33;3.30;;;3.07;;
30472;SDS011;17263;48.160;11.452;2024-03-17T08:16:06;4.97;;;3.50;;
30472;SDS011;17263;48.160;11.452;2024-03-17T08:18:36;3.50;;;3.10;;
30472;SDS011;17263;48.160;11.452;2024-03-17T08:21:03;5.03;;;3.10;;
30472;SDS011;17263;48.160;11.452;2024-03-17T08:23:34;3.40;;;3.10;;
30472;SDS011;17263;48.160;11.452;2024-03-17T08:26:04;3.03;;;2.83;;
30472;SDS011;17263;48.160;11.452;2024-03-17T08:28:30;3.23;;;2.93;;
30472;SDS011;17263;48.160;11.452;2024-03-17T08:30:57;3.30;;;3.00;;
30472;SDS011;17263;48.160;11.452;2024-03-17T08:33:24;3.13;;;2.83;;
30472;SDS011;17263;48.160;11.452;2024-03-17T08:38:24;3.80;;;3.43;;
30472;SDS011;17263;48.160;11.452;2024-03-17T08:40:51;3.83;;;2.97;;
30472;SDS011;17263;48.160;11.452;2024-03-17T08:43:18;3.43;;;3.07;;
30472;SDS011;17263;48.160;11.452;2024-03-17T08:45:45;4.10;;;2.90;;
30472;SDS011;17263;48.160;11.452;2024-03-17T08:48:11;3.13;;;2.83;;
30472;SDS011;17263;48.160;11.452;2024-03-17T08:50:37;3.50;;;3.20;;
30472;SDS011;17263;48.160;11.452;2024-03-17T08:53:03;3.57;;;2.87;;
30472;SDS011;17263;48.160;11.452;2024-03-17T08:55:29;3.50;;;2.40;;
30472;SDS011;17263;48.160;11.452;2024-03-17T08:57:55;3.70;;;3.07;;
30472;SDS011;17263;48.160;11.452;2024-03-17T09:00:21;2.93;;;2.70;;
30472;SDS011;17263;48.160;11.452;2024-03-17T09:02:47;4.20;;;2.63;;
30472;SDS011;17263;48.160;11.452;2024-03-17T09:05:13;3.87;;;2.40;;
30472;SDS011;17263;48.160;11.452;2024-03-17T09:07:39;3.07;;;2.07;;
30472;SDS011;17263;48.160;11.452;2024-03-17T09:10:05;2.67;;;2.43;;
30472;SDS011;17263;48.160;11.452;2024-03-17T09:12:32;3.10;;;2.53;;
30472;SDS011;17263;48.160;11.452;2024-03-17T09:14:58;3.53;;;2.60;;
30472;SDS011;17263;48.160;11.452;2024-03-17T09:17:24;3.00;;;2.20;;
30472;SDS011;17263;48.160;11.452;2024-03-17T09:19:50;2.70;;;2.50;;
30472;SDS011;17263;48.160;11.452;2024-03-17T09:22:16;2.83;;;2.63;;
30472;SDS011;17263;48.160;11.452;2024-03-17T09:24:42;2.13;;;1.90;;
30472;SDS011;17263;48.160;11.452;2024-03-17T09:27:08;2.23;;;2.03;;
30472;SDS011;17263;48.160;11.452;2024-03-17T09:29:34;2.73;;;2.17;;
30472;SDS011;17263;48.160;11.452;2024-03-17T09:32:00;2.53;;;1.93;;
30472;SDS011;17263;48.160;11.452;2024-03-17T09:34:26;2.93;;;2.20;;
30472;SDS011;17263;48.160;11.452;2024-03-17T09:36:52;2.17;;;1.97;;
30472;SDS011;17263;48.160;11.452;2024-03-17T09:39:18;2.30;;;2.10;;
30472;SDS011;17263;48.160;11.452;2024-03-17T09:41:46;2.47;;;2.00;;
30472;SDS011;17263;48.160;11.452;2024-03-17T09:44:12;3.10;;;2.20;;
30472;SDS011;17263;48.160;11.452;2024-03-17T09:46:39;2.13;;;1.93;;
30472;SDS011;17263;48.160;11.452;2024-03-17T09:49:09;2.63;;;1.80;;
30472;SDS011;17263;48.160;11.452;2024-03-17T09:51:40;1.97;;;1.60;;
30472;SDS011;17263;48.160;11.452;2024-03-17T09:54:15;2.17;;;1.90;;
30472;SDS011;17263;48.160;11.452;2024-03-17T09:56:44;4.07;;;2.20;;
30472;SDS011;17263;48.160;11.452;2024-03-17T09:59:11;1.80;;;1.60;;
30472;SDS011;17263;48.160;11.452;2024-03-17T10:01:37;1.90;;;1.60;;
30472;SDS011;17263;48.160;11.452;2024-03-17T10:04:03;2.10;;;1.53;;
30472;SDS011;17263;48.160;11.452;2024-03-17T10:06:30;2.20;;;1.53;;
30472;SDS011;17263;48.160;11.452;2024-03-17T10:08:57;3.03;;;1.80;;
30472;SDS011;17263;48.160;11.452;2024-03-17T10:11:27;2.63;;;2.00;;
30472;SDS011;17263;48.160;11.452;2024-03-17T10:16:35;2.40;;;1.80;;
30472;SDS011;17263;48.160;11.452;2024-03-17T10:19:09;1.77;;;1.60;;
30472;SDS011;17263;48.160;11.452;2024-03-17T10:21:49;2.10;;;1.70;;
30472;SDS011;17263;48.160;11.452;2024-03-17T10:24:19;2.77;;;1.80;;
30472;SDS011;17263;48.160;11.452;2024-03-17T10:26:53;5.47;;;1.90;;
30472;SDS011;17263;48.160;11.452;2024-03-17T10:31:50;2.97;;;2.00;;
30472;SDS011;17263;48.160;11.452;2024-03-17T10:34:21;2.80;;;1.40;;
30472;SDS011;17263;48.160;11.452;2024-03-17T10:39:42;3.40;;;1.77;;
30472;SDS011;17263;48.160;11.452;2024-03-17T10:42:12;1.67;;;1.57;;
30472;SDS011;17263;48.160;11.452;2024-03-17T10:44:43;2.10;;;1.13;;
30472;SDS011;17263;48.160;11.452;2024-03-17T10:47:17;2.50;;;1.33;;
30472;SDS011;17263;48.160;11.452;2024-03-17T10:49:47;3.17;;;1.50;;
30472;SDS011;17263;48.160;11.452;2024-03-17T10:52:16;2.37;;;1.40;;
30472;SDS011;17263;48.160;11.452;2024-03-17T10:54:47;2.63;;;1.40;;
30472;SDS011;17263;48.160;11.452;2024-03-17T10:57:37;3.57;;;1.90;;
30472;SDS011;17263;48.160;11.452;2024-03-17T11:00:10;4.37;;;2.00;;
30472;SDS011;17263;48.160;11.452;2024-03-17T11:02:42;3.90;;;1.80;;
30472;SDS011;17263;48.160;11.452;2024-03-17T11:05:11;3.03;;;1.60;;
30472;SDS011;17263;48.160;11.452;2024-03-17T11:07:56;2.20;;;1.50;;
30472;SDS011;17263;48.160;11.452;2024-03-17T11:10:27;3.50;;;1.70;;
30472;SDS011;17263;48.160;11.452;2024-03-17T11:12:55;2.43;;;1.50;;
30472;SDS011;17263;48.160;11.452;2024-03-17T11:17:52;1.93;;;1.10;;
30472;SDS011;17263;48.160;11.452;2024-03-17T11:20:29;3.17;;;1.60;;
30472;SDS011;17263;48.160;11.452;2024-03-17T11:22:55;2.60;;;1.30;;
30472;SDS011;17263;48.160;11.452;2024-03-17T11:30:43;3.47;;;1.37;;
30472;SDS011;17263;48.160;11.452;2024-03-17T11:36:39;5.13;;;1.50;;
30472;SDS011;17263;48.160;11.452;2024-03-17T11:41:39;2.37;;;1.30;;
30472;SDS011;17263;48.160;11.452;2024-03-17T11:47:02;2.50;;;1.50;;
30472;SDS011;17263;48.160;11.452;2024-03-17T11:49:30;1.77;;;1.07;;
30472;SDS011;17263;48.160;11.452;2024-03-17T11:52:11;3.40;;;1.50;;
30472;SDS011;17263;48.160;11.452;2024-03-17T11:54:42;2.10;;;1.23;;
30472;SDS011;17263;48.160;11.452;2024-03-17T11:57:14;2.63;;;1.30;;
30472;SDS011;17263;48.160;11.452;2024-03-17T11:59:49;2.60;;;1.30;;
30472;SDS011;17263;48.160;11.452;2024-03-17T12:02:18;2.60;;;1.20;;
30472;SDS011;17263;48.160;11.452;2024-03-17T12:04:49;9.43;;;2.07;;
30472;SDS011;17263;48.160;11.452;2024-03-17T12:07:16;17.30;;;2.27;;
30472;SDS011;17263;48.160;11.452;2024-03-17T12:09:43;10.67;;;6.07;;
30472;SDS011;17263;48.160;11.452;2024-03-17T12:12:16;5.13;;;3.30;;
30472;SDS011;17263;48.160;11.452;2024-03-17T12:14:49;2.07;;;1.33;;
30472;SDS011;17263;48.160;11.452;2024-03-17T12:17:22;5.20;;;1.60;;
30472;SDS011;17263;48.160;11.452;2024-03-17T12:19:50;2.67;;;1.40;;
30472;SDS011;17263;48.160;11.452;2024-03-17T12:22:20;3.60;;;1.70;;
30472;SDS011;17263;48.160;11.452;2024-03-17T12:24:48;3.13;;;1.50;;
30472;SDS011;17263;48.160;11.452;2024-03-17T12:27:20;1.87;;;1.20;;
30472;SDS011;17263;48.160;11.452;2024-03-17T12:29:53;3.13;;;1.43;;
30472;SDS011;17263;48.160;11.452;2024-03-17T12:32:21;3.50;;;1.40;;
30472;SDS011;17263;48.160;11.452;2024-03-17T12:34:52;2.53;;;1.43;;
30472;SDS011;17263;48.160;11.452;2024-03-17T12:37:23;4.93;;;1.60;;
30472;SDS011;17263;48.160;11.452;2024-03-17T12:39:59;2.83;;;1.30;;
30472;SDS011;17263;48.160;11.452;2024-03-17T12:42:26;2.43;;;1.40;;
30472;SDS011;17263;48.160;11.452;2024-03-17T12:44:53;1.80;;;1.50;;
30472;SDS011;17263;48.160;11.452;2024-03-17T12:47:31;2.57;;;1.50;;
30472;SDS011;17263;48.160;11.452;2024-03-17T12:49:58;4.47;;;1.40;;
30472;SDS011;17263;48.160;11.452;2024-03-17T12:52:34;3.23;;;1.43;;
30472;SDS011;17263;48.160;11.452;2024-03-17T12:55:04;6.03;;;3.53;;
30472;SDS011;17263;48.160;11.452;2024-03-17T12:57:49;3.07;;;2.10;;
30472;SDS011;17263;48.160;11.452;2024-03-17T13:00:35;2.60;;;1.50;;
30472;SDS011;17263;48.160;11.452;2024-03-17T13:03:02;3.70;;;1.60;;
30472;SDS011;17263;48.160;11.452;2024-03-17T13:05:30;4.30;;;1.93;;
30472;SDS011;17263;48.160;11.452;2024-03-17T13:07:57;2.97;;;1.50;;
30472;SDS011;17263;48.160;11.452;2024-03-17T13:10:25;4.80;;;1.40;;
30472;SDS011;17263;48.160;11.452;2024-03-17T13:13:25;3.23;;;1.50;;
30472;SDS011;17263;48.160;11.452;2024-03-17T13:15:44;3.87;;;1.80;;
30472;SDS011;17263;48.160;11.452;2024-03-17T13:18:15;5.97;;;1.50;;
30472;SDS011;17263;48.160;11.452;2024-03-17T13:20:44;2.53;;;1.43;;
30472;SDS011;17263;48.160;11.452;2024-03-17T13:23:11;4.57;;;1.10;;
30472;SDS011;17263;48.160;11.452;2024-03-17T13:25:37;2.60;;;1.40;;
30472;SDS011;17263;48.160;11.452;2024-03-17T13:28:04;1.77;;;1.27;;
30472;SDS011;17263;48.160;11.452;2024-03-17T13:30:32;2.97;;;1.43;;
30472;SDS011;17263;48.160;11.452;2024-03-17T13:33:02;3.10;;;1.67;;
30472;SDS011;17263;48.160;11.452;2024-03-17T13:35:34;3.70;;;1.60;;
30472;SDS011;17263;48.160;11.452;2024-03-17T13:38:07;4.57;;;1.90;;
30472;SDS011;17263;48.160;11.452;2024-03-17T13:40:36;4.63;;;2.10;;
30472;SDS011;17263;48.160;11.452;2024-03-17T13:43:04;2.83;;;1.90;;
30472;SDS011;17263;48.160;11.452;2024-03-17T13:45:31;2.27;;;1.47;;
30472;SDS011;17263;48.160;11.452;2024-03-17T13:48:08;4.33;;;1.53;;
30472;SDS011;17263;48.160;11.452;2024-03-17T13:50:38;3.03;;;1.40;;
30472;SDS011;17263;48.160;11.452;2024-03-17T13:53:10;3.73;;;1.60;;
30472;SDS011;17263;48.160;11.452;2024-03-17T13:55:36;2.10;;;1.30;;
30472;SDS011;17263;48.160;11.452;2024-03-17T13:58:03;2.03;;;1.13;;
30472;SDS011;17263;48.160;11.452;2024-03-17T14:00:30;3.53;;;1.50;;
30472;SDS011;17263;48.160;11.452;2024-03-17T14:02:57;3.97;;;1.70;;
30472;SDS011;17263;48.160;11.452;2024-03-17T14:05:23;3.00;;;1.57;;
30472;SDS011;17263;48.160;11.452;2024-03-17T14:07:54;1.97;;;1.33;;
30472;SDS011;17263;48.160;11.452;2024-03-17T14:10:21;3.23;;;1.63;;
30472;SDS011;17263;48.160;11.452;2024-03-17T14:12:48;3.97;;;1.50;;
30472;SDS011;17263;48.160;11.452;2024-03-17T14:15:16;2.77;;;1.23;;
30472;SDS011;17263;48.160;11.452;2024-03-17T14:17:46;2.67;;;1.47;;
30472;SDS011;17263;48.160;11.452;2024-03-17T14:20:13;3.23;;;1.40;;
30472;SDS011;17263;48.160;11.452;2024-03-17T14:22:40;3.13;;;1.73;;
30472;SDS011;17263;48.160;11.452;2024-03-17T14:25:07;5.57;;;1.60;;
30472;SDS011;17263;48.160;11.452;2024-03-17T14:27:36;3.50;;;2.10;;
30472;SDS011;17263;48.160;11.452;2024-03-17T14:30:02;10.73;;;6.90;;
30472;SDS011;17263;48.160;11.452;2024-03-17T14:32:29;4.67;;;2.10;;
30472;SDS011;17263;48.160;11.452;2024-03-17T14:34:56;2.23;;;1.70;;
30472;SDS011;17263;48.160;11.452;2024-03-17T14:37:22;3.40;;;1.47;;
30472;SDS011;17263;48.160;11.452;2024-03-17T14:39:49;4.53;;;1.43;;
30472;SDS011;17263;48.160;11.452;2024-03-17T14:42:16;3.43;;;1.33;;
30472;SDS011;17263;48.160;11.452;2024-03-17T14:44:42;5.23;;;1.83;;
30472;SDS011;17263;48.160;11.452;2024-03-17T14:47:08;4.67;;;1.83;;
30472;SDS011;17263;48.160;11.452;2024-03-17T14:49:36;5.00;;;1.80;;
30472;SDS011;17263;48.160;11.452;2024-03-17T14:52:05;2.57;;;1.70;;
30472;SDS011;17263;48.160;11.452;2024-03-17T14:54:31;5.00;;;1.80;;
30472;SDS011;17263;48.160;11.452;2024-03-17T14:56:58;4.63;;;1.90;;
30472;SDS011;17263;48.160;11.452;2024-03-17T14:59:24;3.60;;;1.80;;
30472;SDS011;17263;48.160;11.452;2024-03-17T15:01:50;5.13;;;2.27;;
30472;SDS011;17263;48.160;11.452;2024-03-17T15:04:16;3.53;;;2.00;;
30472;SDS011;17263;48.160;11.452;2024-03-17T15:06:44;4.43;;;1.83;;
30472;SDS011;17263;48.160;11.452;2024-03-17T15:09:10;3.30;;;1.80;;
30472;SDS011;17263;48.160;11.452;2024-03-17T15:11:38;5.23;;;1.70;;
30472;SDS011;17263;48.160;11.452;2024-03-17T15:14:04;2.00;;;1.50;;